< Cyclone 201211 2012 Season Cyclone 201215 >
Cyclone 201212 (Jasmine)
General InformationTrack Information on Google MapsDetailed Wind InformationList of All Images || ResourceGoogle EarthGE AnimationAtom FeedGeoJSON
Detalied Best Track (Time Zone = UTC)
Year Month Day Hour Lat. Long. Pressure (hPa) Wind (kt) Class Image Chart
2012 1 31 18 -15.2 140.9 997 20 2 Image --
2012 2 1 00 -15.1 140.6 997 25 2 Image --
2012 2 1 06 -15.3 140.8 995 25 2 Image --
2012 2 1 12 -15.4 140.8 996 25 2 Image --
2012 2 1 18 -15.0 141.3 994 25 2 Image --
2012 2 2 00 -14.7 142.0 996 25 2 Image --
2012 2 2 06 -15.0 142.9 993 25 2 Image --
2012 2 2 12 -15.1 143.7 994 20 2 Image --
2012 2 2 18 -15.1 145.3 992 25 2 Image --
2012 2 3 00 -15.7 147.4 993 25 2 Image --
2012 2 3 06 -16.4 148.5 989 25 2 Image --
2012 2 3 12 -16.9 149.3 989 25 2 Image --
2012 2 3 18 -17.1 149.7 990 25 2 Image --
2012 2 4 00 -17.2 149.9 990 25 2 Image --
2012 2 4 06 -17.2 150.2 990 25 2 Image --
2012 2 4 12 -17.1 150.7 990 30 2 Image --
2012 2 4 18 -17.0 151.3 989 30 2 Image --
2012 2 5 00 -17.0 152.3 988 30 2 Image --
2012 2 5 06 -17.3 153.8 987 35 3 Image --
2012 2 5 12 -17.2 155.2 985 40 3 Image --
2012 2 5 18 -16.8 156.2 982 45 3 Image --
2012 2 6 00 -16.8 157.8 980 50 4 Image --
2012 2 6 06 -17.1 158.8 977 60 4 Image --
2012 2 6 12 -17.2 160.2 977 0 0 Image --
< Cyclone 201211 2012 Season Cyclone 201215 >

Help